createdAt,value
2023-01-17T00:01:29.767Z,3.48
2023-01-17T00:04:06.803Z,3.44
2023-01-17T00:06:43.779Z,3.44
2023-01-17T00:09:21.644Z,3.41
2023-01-17T00:11:48.556Z,3.43
2023-01-17T00:14:15.493Z,3.43
2023-01-17T00:16:42.560Z,3.44
2023-01-17T00:19:18.748Z,3.44
2023-01-17T00:21:55.593Z,3.41
2023-01-17T00:24:31.703Z,3.41
2023-01-17T00:27:08.807Z,3.43
2023-01-17T00:29:35.837Z,3.43
2023-01-17T00:32:02.807Z,3.39
2023-01-17T00:34:29.749Z,3.39
2023-01-17T00:36:56.670Z,3.39
2023-01-17T00:39:23.578Z,3.41
2023-01-17T00:41:50.548Z,3.41
2023-01-17T00:44:26.569Z,3.38
2023-01-17T00:47:03.249Z,3.35
2023-01-17T00:49:39.495Z,3.35
2023-01-17T00:52:15.395Z,3.37
2023-01-17T00:54:51.692Z,3.37
2023-01-17T00:57:28.557Z,3.34
2023-01-17T01:00:04.581Z,3.32
2023-01-17T01:02:42.653Z,3.28
2023-01-17T01:05:19.667Z,3.29
2023-01-17T01:07:56.816Z,3.29
2023-01-17T01:10:33.736Z,3.31
2023-01-17T01:13:10.676Z,3.24
2023-01-17T01:15:47.875Z,3.26
2023-01-17T01:18:24.647Z,3.25
2023-01-17T01:21:01.937Z,3.27
2023-01-17T01:23:38.797Z,3.27
2023-01-17T01:26:15.542Z,3.27
2023-01-17T01:28:52.825Z,3.24
2023-01-17T01:31:29.882Z,3.21
2023-01-17T01:33:56.908Z,3.17
2023-01-17T01:36:23.757Z,3.18
2023-01-17T01:38:50.789Z,3.21
2023-01-17T01:41:18.245Z,3.22
2023-01-17T01:43:46.273Z,3.23
2023-01-17T01:46:16.341Z,3.25
2023-01-17T01:48:50.887Z,3.22
2023-01-17T01:51:20.244Z,3.21
2023-01-17T01:53:51.877Z,3.19
2023-01-17T01:56:20.495Z,3.16
2023-01-17T01:58:49.908Z,3.17
2023-01-17T02:01:18.419Z,3.15
2023-01-17T02:03:46.201Z,3.09
2023-01-17T02:06:20.540Z,3.06
2023-01-17T02:08:48.243Z,3.08
2023-01-17T02:11:16.025Z,3.04
2023-01-17T02:13:43.586Z,3.00
2023-01-17T02:16:11.858Z,2.97
2023-01-17T02:18:39.197Z,2.93
2023-01-17T02:21:15.878Z,2.91
2023-01-17T02:23:44.900Z,2.86
2023-01-17T02:26:22.058Z,2.86
2023-01-17T02:28:52.089Z,2.88
2023-01-17T02:31:27.221Z,2.90
2023-01-17T02:34:07.258Z,2.88
2023-01-17T02:36:37.301Z,2.88
2023-01-17T02:39:09.185Z,2.87
2023-01-17T02:41:38.556Z,2.87
2023-01-17T02:44:05.479Z,2.87
2023-01-17T02:46:32.646Z,2.86
2023-01-17T02:49:00.956Z,2.89
2023-01-17T02:51:28.088Z,2.88
2023-01-17T02:54:04.798Z,2.88
2023-01-17T02:56:40.970Z,2.88
2023-01-17T02:59:09.109Z,2.91
2023-01-17T03:01:46.020Z,2.93
2023-01-17T03:04:18.487Z,2.90
2023-01-17T03:06:49.345Z,2.88
2023-01-17T03:09:17.765Z,2.89
2023-01-17T03:11:44.798Z,2.87
2023-01-17T03:14:12.816Z,2.87
2023-01-17T03:16:40.038Z,2.88
2023-01-17T03:19:07.048Z,2.86
2023-01-17T03:21:34.002Z,2.82
2023-01-17T03:24:00.961Z,2.78
2023-01-17T03:26:27.966Z,2.75
2023-01-17T03:28:54.797Z,2.75
2023-01-17T03:31:21.876Z,2.74
2023-01-17T03:33:48.817Z,2.74
2023-01-17T03:36:15.688Z,2.73
2023-01-17T03:38:42.719Z,2.70
2023-01-17T03:41:09.601Z,2.66
2023-01-17T03:43:36.637Z,2.62
2023-01-17T03:46:05.012Z,2.59
2023-01-17T03:48:32.460Z,2.58
2023-01-17T03:50:59.358Z,2.57
2023-01-17T03:53:26.564Z,2.58
2023-01-17T03:55:53.491Z,2.58
2023-01-17T03:58:20.795Z,2.62
2023-01-17T04:00:47.744Z,2.63
2023-01-17T04:03:14.808Z,2.64
2023-01-17T04:05:41.761Z,2.63
2023-01-17T04:08:08.800Z,2.60
2023-01-17T04:10:35.667Z,2.55
2023-01-17T04:13:02.485Z,2.52
2023-01-17T04:15:29.351Z,2.48
2023-01-17T04:17:56.324Z,2.46
2023-01-17T04:20:31.267Z,2.44
2023-01-17T04:22:58.135Z,2.48
2023-01-17T04:25:26.035Z,2.47
2023-01-17T04:27:53.496Z,2.48
2023-01-17T04:30:20.490Z,2.48
2023-01-17T04:32:47.849Z,2.46
2023-01-17T04:35:14.783Z,2.43
2023-01-17T04:37:41.770Z,2.41
2023-01-17T04:40:09.460Z,2.38
2023-01-17T04:42:36.406Z,2.35
2023-01-17T04:45:03.667Z,2.35
2023-01-17T04:47:30.694Z,2.33
2023-01-17T04:49:57.734Z,2.30
2023-01-17T04:52:25.769Z,2.27
2023-01-17T04:54:53.326Z,2.24
2023-01-17T04:57:20.435Z,2.19
2023-01-17T04:59:47.597Z,2.19
2023-01-17T05:02:14.799Z,2.18
2023-01-17T05:04:41.751Z,2.17
2023-01-17T05:07:08.723Z,2.17
2023-01-17T05:09:35.696Z,2.15
2023-01-17T05:12:02.573Z,2.17
2023-01-17T05:14:29.601Z,2.14
2023-01-17T05:16:57.284Z,2.14
2023-01-17T05:19:24.959Z,2.13
2023-01-17T05:21:51.906Z,2.11
2023-01-17T05:24:19.231Z,2.11
2023-01-17T05:26:46.356Z,2.12
2023-01-17T05:29:13.117Z,2.11
2023-01-17T05:31:39.877Z,2.10
2023-01-17T05:34:06.700Z,2.10
2023-01-17T05:36:33.461Z,2.13
2023-01-17T05:39:00.201Z,2.16
2023-01-17T05:41:26.931Z,2.19
2023-01-17T05:43:53.631Z,2.21
2023-01-17T05:46:20.402Z,2.23
2023-01-17T05:48:47.165Z,2.23
2023-01-17T05:51:14.086Z,2.21
2023-01-17T05:53:40.792Z,2.21
2023-01-17T05:56:07.651Z,2.22
2023-01-17T05:58:34.519Z,2.21
2023-01-17T06:01:01.707Z,2.21
2023-01-17T06:03:28.526Z,2.21
2023-01-17T06:05:55.307Z,2.21
2023-01-17T06:08:23.638Z,2.17
2023-01-17T06:10:50.477Z,2.19
2023-01-17T06:13:21.085Z,2.20
2023-01-17T06:15:48.092Z,2.14
2023-01-17T06:18:16.363Z,2.13
2023-01-17T06:20:43.671Z,2.09
2023-01-17T06:23:12.032Z,2.10
2023-01-17T06:25:39.085Z,2.13
2023-01-17T06:28:07.659Z,2.16
2023-01-17T06:30:34.735Z,2.17
2023-01-17T06:33:01.829Z,2.17
2023-01-17T06:35:29.242Z,2.13
2023-01-17T06:37:56.206Z,2.13
2023-01-17T06:40:22.996Z,2.15
2023-01-17T06:42:49.752Z,2.15
2023-01-17T06:45:16.643Z,2.18
2023-01-17T06:47:43.596Z,2.21
2023-01-17T06:50:12.581Z,2.23
2023-01-17T06:52:39.592Z,2.27
2023-01-17T06:55:07.201Z,2.32
2023-01-17T06:57:33.997Z,2.34
2023-01-17T07:00:00.916Z,2.34
2023-01-17T07:02:27.649Z,2.37
2023-01-17T07:04:54.514Z,2.38
2023-01-17T07:07:21.356Z,2.35
2023-01-17T07:09:48.094Z,2.32
2023-01-17T07:12:14.991Z,2.29
2023-01-17T07:14:41.777Z,2.27
2023-01-17T07:17:08.591Z,2.24
2023-01-17T07:19:35.468Z,2.21
2023-01-17T07:22:02.222Z,2.17
2023-01-17T07:24:29.161Z,2.13
2023-01-17T07:26:55.961Z,2.15
2023-01-17T07:29:22.836Z,2.10
2023-01-17T07:31:49.740Z,2.09
2023-01-17T07:34:16.823Z,2.11
2023-01-17T07:36:43.695Z,2.10
2023-01-17T07:39:14.271Z,2.15
2023-01-17T07:41:41.603Z,2.15
2023-01-17T07:44:09.062Z,2.16
2023-01-17T07:46:35.903Z,2.17
2023-01-17T07:49:03.192Z,2.14
2023-01-17T07:51:30.018Z,2.11
2023-01-17T07:53:56.931Z,2.13
2023-01-17T07:56:24.150Z,2.57
2023-01-17T07:58:51.104Z,2.62
2023-01-17T08:01:18.077Z,2.58
2023-01-17T08:03:44.993Z,2.51
2023-01-17T08:06:13.058Z,2.50
2023-01-17T08:08:39.945Z,2.49
2023-01-17T08:11:06.892Z,2.46
2023-01-17T08:13:33.734Z,2.43
2023-01-17T08:16:02.673Z,2.43
2023-01-17T08:18:29.995Z,2.41
2023-01-17T08:20:57.052Z,2.43
2023-01-17T08:23:24.064Z,2.46
2023-01-17T08:25:50.861Z,2.44
2023-01-17T08:28:18.219Z,2.46
2023-01-17T08:30:45.146Z,2.46
2023-01-17T08:33:12.012Z,2.47
2023-01-17T08:35:38.872Z,2.50
2023-01-17T08:38:05.741Z,2.50
2023-01-17T08:40:33.851Z,2.48
2023-01-17T08:43:01.373Z,2.51
2023-01-17T08:45:28.818Z,2.58
2023-01-17T08:47:57.677Z,2.62
2023-01-17T08:50:26.546Z,2.64
2023-01-17T08:53:00.175Z,2.64
2023-01-17T08:55:28.025Z,2.64
2023-01-17T08:57:54.945Z,2.66
2023-01-17T09:00:22.236Z,2.68
2023-01-17T09:02:51.455Z,2.67
2023-01-17T09:05:18.352Z,2.67
2023-01-17T09:07:45.203Z,2.67
2023-01-17T09:10:12.687Z,2.66
2023-01-17T09:12:40.604Z,2.70
2023-01-17T09:15:07.871Z,2.74
2023-01-17T09:17:34.914Z,2.81
2023-01-17T09:20:01.730Z,2.83
2023-01-17T09:22:28.532Z,2.84
2023-01-17T09:24:55.401Z,2.84
2023-01-17T09:27:22.312Z,2.86
2023-01-17T09:29:49.196Z,2.92
2023-01-17T09:32:17.522Z,2.96
2023-01-17T09:34:44.847Z,3.03
2023-01-17T09:37:11.799Z,3.06
2023-01-17T09:39:38.713Z,3.10
2023-01-17T09:42:14.855Z,3.09
2023-01-17T09:44:44.110Z,3.13
2023-01-17T09:47:14.297Z,3.16
2023-01-17T09:49:43.770Z,3.23
2023-01-17T09:52:13.905Z,3.23
2023-01-17T09:54:42.692Z,3.27
2023-01-17T09:57:19.016Z,3.26
2023-01-17T09:59:46.178Z,3.28
2023-01-17T10:02:30.499Z,3.29
2023-01-17T10:05:06.848Z,3.33
2023-01-17T10:07:34.952Z,3.35
2023-01-17T10:10:11.868Z,3.36
2023-01-17T10:12:46.200Z,3.34
2023-01-17T10:15:16.361Z,3.35
2023-01-17T10:17:50.911Z,3.34
2023-01-17T10:20:34.339Z,3.33
2023-01-17T10:23:18.301Z,3.37
2023-01-17T10:25:49.090Z,3.41
2023-01-17T10:28:17.666Z,3.43
2023-01-17T10:30:53.894Z,3.48
2023-01-17T10:33:24.002Z,3.49
2023-01-17T10:35:55.434Z,3.52
2023-01-17T10:38:25.578Z,3.54
2023-01-17T10:40:57.083Z,3.59
2023-01-17T10:43:33.812Z,3.61
2023-01-17T10:46:01.743Z,3.65
2023-01-17T10:48:35.842Z,3.68
2023-01-17T10:51:12.063Z,3.70
2023-01-17T10:53:46.015Z,3.73
2023-01-17T10:56:15.201Z,3.73
2023-01-17T10:58:42.497Z,3.73
2023-01-17T11:01:17.133Z,3.74
2023-01-17T11:03:45.872Z,3.79
2023-01-17T11:06:16.459Z,3.79
2023-01-17T11:08:51.738Z,3.82
2023-01-17T11:11:19.395Z,3.84
2023-01-17T11:13:48.117Z,3.87
2023-01-17T11:16:21.453Z,3.91
2023-01-17T11:18:49.251Z,3.96
2023-01-17T11:21:17.933Z,3.99
2023-01-17T11:23:46.132Z,4.04
2023-01-17T11:26:21.212Z,4.10
2023-01-17T11:28:48.035Z,4.16
2023-01-17T11:31:16.863Z,4.20
2023-01-17T11:33:46.108Z,4.24
2023-01-17T11:36:18.531Z,4.25
2023-01-17T11:38:54.592Z,4.28
2023-01-17T11:41:22.483Z,4.30
2023-01-17T11:43:52.252Z,4.34
2023-01-17T11:46:20.639Z,4.37
2023-01-17T11:48:50.320Z,4.40
2023-01-17T11:51:19.376Z,4.42
2023-01-17T11:53:48.476Z,4.44
2023-01-17T11:56:20.210Z,4.44
2023-01-17T11:58:47.533Z,4.43
2023-01-17T12:01:15.649Z,4.45
2023-01-17T12:03:42.792Z,4.47
2023-01-17T12:06:09.929Z,4.49
2023-01-17T12:08:37.874Z,4.49
2023-01-17T12:11:07.857Z,4.51
2023-01-17T12:13:44.443Z,4.53
2023-01-17T12:16:32.716Z,4.55
2023-01-17T12:19:06.284Z,4.58
2023-01-17T12:21:41.337Z,4.59
2023-01-17T12:24:17.688Z,4.63
2023-01-17T12:26:53.725Z,4.63
2023-01-17T12:29:29.703Z,4.64
2023-01-17T12:32:05.640Z,4.66
2023-01-17T12:34:35.672Z,4.64
2023-01-17T12:37:08.435Z,4.66
2023-01-17T12:39:38.673Z,4.69
2023-01-17T12:42:05.988Z,4.69
2023-01-17T12:44:38.434Z,4.71
2023-01-17T12:47:06.296Z,4.72
2023-01-17T12:49:39.372Z,4.73
2023-01-17T12:52:18.833Z,4.74
2023-01-17T12:54:48.102Z,4.76
2023-01-17T12:57:18.751Z,4.79
2023-01-17T12:59:51.220Z,4.81
2023-01-17T13:02:18.255Z,4.85
2023-01-17T13:04:58.399Z,4.84
2023-01-17T13:07:26.370Z,4.85
2023-01-17T13:10:00.057Z,4.85
2023-01-17T13:12:29.675Z,4.86
2023-01-17T13:14:57.441Z,4.88
2023-01-17T13:17:25.512Z,4.89
2023-01-17T13:20:01.312Z,4.91
2023-01-17T13:22:29.222Z,4.93
2023-01-17T13:25:00.773Z,4.92
2023-01-17T13:27:33.355Z,4.89
2023-01-17T13:30:09.805Z,4.90
2023-01-17T13:32:36.844Z,4.89
2023-01-17T13:35:23.521Z,4.91
2023-01-17T13:37:59.682Z,4.88
2023-01-17T13:40:33.319Z,4.85
2023-01-17T13:43:01.418Z,4.85
2023-01-17T13:45:31.495Z,4.84
2023-01-17T13:48:19.236Z,4.86
2023-01-17T13:50:47.712Z,4.85
2023-01-17T13:53:23.806Z,4.85
2023-01-17T13:55:53.654Z,4.86
2023-01-17T13:58:29.715Z,4.84
2023-01-17T14:00:56.760Z,4.81
2023-01-17T14:03:32.809Z,4.78
2023-01-17T14:05:59.619Z,4.80
2023-01-17T14:08:27.620Z,4.78
2023-01-17T14:10:55.156Z,4.78
2023-01-17T14:13:31.760Z,4.80
2023-01-17T14:15:59.015Z,4.80
2023-01-17T14:18:32.960Z,4.81
2023-01-17T14:21:04.933Z,4.83
2023-01-17T14:23:35.432Z,4.83
2023-01-17T14:26:13.671Z,4.81
2023-01-17T14:28:40.652Z,4.79
2023-01-17T14:31:10.771Z,4.76
2023-01-17T14:33:40.102Z,4.71
2023-01-17T14:36:08.157Z,4.67
2023-01-17T14:38:41.398Z,4.63
2023-01-17T14:41:09.991Z,4.60
2023-01-17T14:43:39.484Z,4.61
2023-01-17T14:46:08.690Z,4.57
2023-01-17T14:48:39.662Z,4.57
2023-01-17T14:51:12.696Z,4.50
2023-01-17T14:53:39.685Z,4.46
2023-01-17T14:56:14.881Z,4.44
2023-01-17T14:58:41.833Z,4.44
2023-01-17T15:01:12.210Z,4.40
2023-01-17T15:03:50.169Z,4.39
2023-01-17T15:06:22.116Z,4.40
2023-01-17T15:08:49.347Z,4.40
2023-01-17T15:11:19.027Z,4.41
2023-01-17T15:13:47.763Z,4.38
2023-01-17T15:16:21.844Z,4.37
2023-01-17T15:18:48.969Z,4.36
2023-01-17T15:21:17.487Z,4.36
2023-01-17T15:23:46.616Z,4.34
2023-01-17T15:26:15.742Z,4.32
2023-01-17T15:28:45.074Z,4.32
2023-01-17T15:31:13.998Z,4.32
2023-01-17T15:33:42.868Z,4.31
2023-01-17T15:36:22.015Z,4.30
2023-01-17T15:38:54.573Z,4.28
2023-01-17T15:41:22.418Z,4.25
2023-01-17T15:43:49.458Z,4.22
2023-01-17T15:46:26.036Z,4.21
2023-01-17T15:48:53.133Z,4.22
2023-01-17T15:51:29.697Z,4.22
2023-01-17T15:53:56.653Z,4.20
2023-01-17T15:56:24.715Z,4.20
2023-01-17T15:58:52.195Z,4.19
2023-01-17T16:01:25.055Z,4.18
2023-01-17T16:03:53.336Z,4.14
2023-01-17T16:06:29.756Z,4.14
2023-01-17T16:08:56.577Z,4.12
2023-01-17T16:11:23.446Z,4.10
2023-01-17T16:13:50.697Z,4.10
2023-01-17T16:16:20.175Z,4.12
2023-01-17T16:18:48.181Z,4.09
2023-01-17T16:21:19.138Z,4.06
2023-01-17T16:23:46.377Z,4.05
2023-01-17T16:26:13.399Z,4.04
2023-01-17T16:28:40.244Z,4.03
2023-01-17T16:31:07.184Z,4.01
2023-01-17T16:33:34.236Z,3.99
2023-01-17T16:36:01.124Z,3.94
2023-01-17T16:38:28.155Z,3.94
2023-01-17T16:40:55.018Z,3.92
2023-01-17T16:43:21.936Z,3.89
2023-01-17T16:45:50.756Z,3.87
2023-01-17T16:48:19.488Z,3.86
2023-01-17T16:50:48.594Z,3.87
2023-01-17T16:53:16.086Z,3.85
2023-01-17T16:55:43.896Z,3.83
2023-01-17T16:58:11.057Z,3.82
2023-01-17T17:00:37.892Z,3.79
2023-01-17T17:03:04.739Z,3.77
2023-01-17T17:05:33.923Z,3.75
2023-01-17T17:08:01.268Z,3.73
2023-01-17T17:10:28.177Z,3.70
2023-01-17T17:12:55.181Z,3.68
2023-01-17T17:15:22.229Z,3.68
2023-01-17T17:17:50.174Z,3.67
2023-01-17T17:20:17.782Z,3.66
2023-01-17T17:22:49.512Z,3.64
2023-01-17T17:25:16.809Z,3.62
2023-01-17T17:27:43.825Z,3.60
2023-01-17T17:30:11.749Z,3.60
2023-01-17T17:32:39.010Z,3.59
2023-01-17T17:35:06.459Z,3.61
2023-01-17T17:37:34.723Z,3.62
2023-01-17T17:40:01.727Z,3.61
2023-01-17T17:42:28.597Z,3.61
2023-01-17T17:44:55.797Z,3.62
2023-01-17T17:47:24.356Z,3.64
2023-01-17T17:49:51.242Z,3.61
2023-01-17T17:52:18.376Z,3.61
2023-01-17T17:54:45.284Z,3.62
2023-01-17T17:57:12.467Z,3.63
2023-01-17T17:59:39.654Z,3.61
2023-01-17T18:02:11.353Z,3.60
2023-01-17T18:04:38.460Z,3.59
2023-01-17T18:07:05.372Z,3.59
2023-01-17T18:09:32.289Z,3.61
2023-01-17T18:11:59.220Z,3.61
2023-01-17T18:14:26.577Z,3.62
2023-01-17T18:16:53.610Z,3.63
2023-01-17T18:19:22.272Z,3.62
2023-01-17T18:21:50.640Z,3.63
2023-01-17T18:24:18.811Z,3.61
2023-01-17T18:26:46.558Z,3.62
2023-01-17T18:29:15.302Z,3.62
2023-01-17T18:31:43.141Z,3.62
2023-01-17T18:34:11.936Z,3.61
2023-01-17T18:36:39.318Z,3.61
2023-01-17T18:39:11.430Z,3.63
2023-01-17T18:41:38.456Z,3.63
2023-01-17T18:44:06.317Z,3.64
2023-01-17T18:46:34.081Z,3.63
2023-01-17T18:49:01.121Z,3.61
2023-01-17T18:51:29.612Z,3.62
2023-01-17T18:53:58.248Z,3.57
2023-01-17T18:56:25.492Z,3.54
2023-01-17T18:58:52.510Z,3.50
2023-01-17T19:01:21.092Z,3.47
2023-01-17T19:03:49.906Z,3.44
2023-01-17T19:06:19.158Z,3.43
2023-01-17T19:08:46.331Z,3.43
2023-01-17T19:11:13.207Z,3.43
2023-01-17T19:13:42.053Z,3.45
2023-01-17T19:16:13.246Z,3.47
2023-01-17T19:18:40.255Z,3.46
2023-01-17T19:21:17.324Z,3.44
2023-01-17T19:23:44.331Z,3.43
2023-01-17T19:26:12.342Z,3.42
2023-01-17T19:28:40.885Z,3.42
2023-01-17T19:31:16.611Z,3.45
2023-01-17T19:33:44.506Z,3.47
2023-01-17T19:39:12.339Z,3.43
2023-01-17T19:41:42.114Z,3.44
2023-01-17T19:44:10.376Z,3.43
2023-01-17T19:46:37.697Z,3.43
2023-01-17T19:49:06.013Z,3.42
2023-01-17T19:51:33.323Z,3.40
2023-01-17T19:54:01.665Z,3.38
2023-01-17T19:56:29.372Z,3.38
2023-01-17T19:59:01.662Z,3.40
2023-01-17T20:01:30.501Z,3.39
2023-01-17T20:03:59.647Z,3.38
2023-01-17T20:06:29.137Z,3.36
2023-01-17T20:08:56.591Z,3.35
2023-01-17T20:11:24.383Z,3.35
2023-01-17T20:13:53.697Z,3.33
2023-01-17T20:16:21.039Z,3.33
2023-01-17T20:18:48.577Z,3.32
2023-01-17T20:21:17.520Z,3.35
2023-01-17T20:23:45.011Z,3.35
2023-01-17T20:26:12.423Z,3.32
2023-01-17T20:28:40.126Z,3.29
2023-01-17T20:31:12.855Z,3.31
2023-01-17T20:33:40.155Z,3.29
2023-01-17T20:36:10.999Z,3.30
2023-01-17T20:38:45.690Z,3.30
2023-01-17T20:41:14.103Z,3.29
2023-01-17T20:43:42.288Z,3.29
2023-01-17T20:46:09.986Z,3.28
2023-01-17T20:48:37.996Z,3.26
2023-01-17T20:51:06.234Z,3.26
2023-01-17T20:53:35.430Z,3.25
2023-01-17T20:56:02.211Z,3.24
2023-01-17T20:58:29.605Z,3.23
2023-01-17T21:00:56.852Z,3.23
2023-01-17T21:03:24.487Z,3.20
2023-01-17T21:05:51.718Z,3.20
2023-01-17T21:08:18.736Z,3.20
2023-01-17T21:10:47.819Z,3.19
2023-01-17T21:13:15.016Z,3.15
2023-01-17T21:15:42.758Z,3.11
2023-01-17T21:18:10.176Z,3.08
2023-01-17T21:20:36.960Z,3.08
2023-01-17T21:23:03.841Z,3.07
2023-01-17T21:25:30.591Z,3.06
2023-01-17T21:27:59.879Z,3.07
2023-01-17T21:30:26.721Z,3.07
2023-01-17T21:32:53.516Z,3.05
2023-01-17T21:35:20.455Z,3.07
2023-01-17T21:37:49.230Z,3.05
2023-01-17T21:40:17.331Z,3.03
2023-01-17T21:42:44.266Z,3.03
2023-01-17T21:45:11.317Z,3.05
2023-01-17T21:47:38.232Z,3.03
2023-01-17T21:50:05.287Z,3.03
2023-01-17T21:52:32.121Z,3.02
2023-01-17T21:55:08.507Z,3.00
2023-01-17T21:57:44.628Z,3.04
2023-01-17T22:00:14.698Z,3.05
2023-01-17T22:02:41.791Z,3.03
2023-01-17T22:05:09.571Z,3.03
2023-01-17T22:07:36.667Z,3.02
2023-01-17T22:10:03.445Z,3.01
2023-01-17T22:12:30.367Z,2.94
2023-01-17T22:14:57.335Z,2.92
2023-01-17T22:17:24.191Z,2.91
2023-01-17T22:19:51.020Z,2.93
2023-01-17T22:22:18.081Z,2.93
2023-01-17T22:24:45.100Z,2.95
2023-01-17T22:27:13.960Z,2.97
2023-01-17T22:29:40.902Z,2.97
2023-01-17T22:32:08.510Z,2.97
2023-01-17T22:34:35.852Z,2.99
2023-01-17T22:37:04.273Z,2.96
2023-01-17T22:39:31.152Z,2.96
2023-01-17T22:41:58.031Z,2.96
2023-01-17T22:44:24.936Z,2.96
2023-01-17T22:46:51.842Z,2.93
2023-01-17T22:49:23.574Z,2.91
2023-01-17T22:51:50.633Z,2.91
2023-01-17T22:54:17.425Z,2.91
2023-01-17T22:56:44.398Z,2.90
2023-01-17T22:59:12.333Z,2.91
2023-01-17T23:01:40.957Z,2.90
2023-01-17T23:04:10.168Z,2.90
2023-01-17T23:06:39.345Z,2.88
2023-01-17T23:09:07.237Z,2.92
2023-01-17T23:11:39.888Z,2.93
2023-01-17T23:14:08.263Z,2.93
2023-01-17T23:16:44.478Z,2.92
2023-01-17T23:19:20.528Z,2.90
2023-01-17T23:22:07.176Z,2.91
2023-01-17T23:24:34.252Z,2.92
2023-01-17T23:27:10.390Z,2.93
2023-01-17T23:29:37.132Z,2.93
2023-01-17T23:32:03.982Z,2.92
2023-01-17T23:34:30.697Z,2.90
2023-01-17T23:36:57.456Z,2.87
2023-01-17T23:39:25.345Z,2.87
2023-01-17T23:42:02.383Z,2.89
2023-01-17T23:44:32.038Z,2.87
2023-01-17T23:47:00.192Z,2.85
2023-01-17T23:49:27.327Z,2.81
2023-01-17T23:51:54.111Z,2.79
2023-01-17T23:54:20.945Z,2.77
2023-01-17T23:56:47.699Z,2.78
2023-01-17T23:59:14.522Z,2.80
